Time;durP1;ratioP1;P1;durP2;ratioP2;P2;SDS_P1;SDS_P2;PMS_P1;PMS_P2;Temp;Humidity;BMP_temperature;BMP_pressure;BME280_temperature;BME280_humidity;BME280_pressure;Samples;Min_cycle;Max_cycle;Signal;HPM_P1;HPM_P2
2021/07/10 00:01:36;;;;;;;;;;;14.90;99.90;;;;;;5043068;28;20041;-75
2021/07/10 00:04:05;;;;;;;41.13;22.55;;;14.80;99.90;;;;;;5022968;28;19924;-76
2021/07/10 00:06:31;;;;;;;40.03;23.02;;;14.70;99.90;;;;;;5037966;28;20450;-75
2021/07/10 00:08:57;;;;;;;40.13;22.92;;;14.70;99.90;;;;;;5045473;28;20382;-76
2021/07/10 00:11:23;;;;;;;39.60;22.70;;;14.70;99.90;;;;;;5039197;28;20036;-76
2021/07/10 00:13:49;;;;;;;;;;;14.60;99.90;;;;;;5049389;28;20493;-76
2021/07/10 00:16:15;;;;;;;40.58;24.40;;;14.50;99.90;;;;;;5037524;28;19921;-76
2021/07/10 00:18:41;;;;;;;44.47;25.58;;;14.50;99.90;;;;;;5046646;28;20045;-76
2021/07/10 00:21:06;;;;;;;;;;;14.50;99.90;;;;;;5034697;28;20038;-76
2021/07/10 00:23:35;;;;;;;45.40;25.58;;;14.50;99.90;;;;;;5042878;28;19959;-76
2021/07/10 00:26:02;;;;;;;45.25;25.42;;;14.50;99.90;;;;;;5039161;28;20672;-76
2021/07/10 00:28:28;;;;;;;42.38;25.73;;;14.50;99.90;;;;;;5047546;28;20045;-75
2021/07/10 00:30:53;;;;;;;;;;;14.50;99.90;;;;;;5039169;28;20072;-76
2021/07/10 00:33:19;;;;;;;46.88;25.95;;;14.40;99.90;;;;;;5017292;28;20377;-76
2021/07/10 00:35:45;;;;;;;;;;;14.50;99.90;;;;;;5038981;28;20088;-77
2021/07/10 00:38:11;;;;;;;43.13;25.60;;;14.50;99.90;;;;;;5041236;28;20003;-76
2021/07/10 00:40:37;;;;;;;45.97;25.33;;;14.50;99.90;;;;;;5048101;28;20041;-76
2021/07/10 00:43:03;;;;;;;44.90;25.67;;;14.60;99.90;;;;;;5042949;28;20040;-76
2021/07/10 00:45:28;;;;;;;47.78;27.67;;;14.70;99.90;;;;;;5037146;28;20030;-76
2021/07/10 00:47:54;;;;;;;47.05;28.08;;;14.70;99.90;;;;;;5039761;28;20045;-76
2021/07/10 00:50:21;;;;;;;;;;;14.80;99.90;;;;;;5041099;28;20116;-75
2021/07/10 00:52:47;;;;;;;45.50;27.05;;;14.80;99.90;;;;;;5042643;28;19927;-76
2021/07/10 00:55:13;;;;;;;43.58;27.15;;;14.90;99.90;;;;;;5049344;28;20025;-75
2021/07/10 00:57:42;;;;;;;45.70;27.27;;;15.00;99.90;;;;;;5042820;28;20419;-76
2021/07/10 01:00:15;;;;;;;50.25;28.27;;;15.00;99.90;;;;;;5044708;28;20072;-76
2021/07/10 01:02:45;;;;;;;43.90;26.75;;;15.10;99.90;;;;;;5046945;28;20053;-76
2021/07/10 01:05:14;;;;;;;49.45;27.25;;;15.10;99.90;;;;;;5030123;28;20034;-75
2021/07/10 01:07:40;;;;;;;46.65;27.88;;;15.10;99.90;;;;;;5051046;28;20159;-75
2021/07/10 01:10:08;;;;;;;48.85;26.60;;;15.10;99.90;;;;;;5048636;28;20038;-75
2021/07/10 01:12:36;;;;;;;44.97;26.67;;;15.00;99.90;;;;;;5050834;28;20028;-76
2021/07/10 01:15:04;;;;;;;46.50;27.30;;;15.00;99.90;;;;;;5050531;28;20458;-75
2021/07/10 01:17:30;;;;;;;48.35;27.98;;;14.90;99.90;;;;;;5031356;28;20055;-75
2021/07/10 01:20:06;;;;;;;47.40;27.63;;;14.90;99.90;;;;;;5047436;28;20482;-75
2021/07/10 01:22:34;;;;;;;46.40;26.88;;;14.80;99.90;;;;;;5044365;28;20029;-75
2021/07/10 01:25:00;;;;;;;49.03;27.70;;;14.80;99.90;;;;;;5031825;28;20037;-75
2021/07/10 01:27:26;;;;;;;;;;;14.80;99.90;;;;;;5043147;28;20037;-76
2021/07/10 01:29:53;;;;;;;45.15;26.92;;;14.80;99.90;;;;;;5026754;28;20015;-77
2021/07/10 01:32:20;;;;;;;47.97;27.65;;;14.80;99.90;;;;;;5044740;28;20068;-75
2021/07/10 01:34:47;;;;;;;45.38;26.02;;;14.80;99.90;;;;;;5048024;28;20037;-76
2021/07/10 01:37:17;;;;;;;48.28;27.27;;;14.80;99.90;;;;;;5040104;28;20033;-76
2021/07/10 01:39:43;;;;;;;51.55;27.75;;;14.80;99.90;;;;;;5039348;28;20041;-76
2021/07/10 01:42:11;;;;;;;47.28;28.48;;;14.80;99.90;;;;;;5052389;28;20041;-76
2021/07/10 01:44:37;;;;;;;49.08;28.08;;;14.70;99.90;;;;;;5050751;28;20470;-76
2021/07/10 01:47:04;;;;;;;46.45;28.05;;;14.70;99.90;;;;;;5051014;28;20040;-77
2021/07/10 01:49:31;;;;;;;50.55;28.75;;;14.60;99.90;;;;;;5042078;28;20034;-77
2021/07/10 01:51:58;;;;;;;47.75;28.13;;;14.50;99.90;;;;;;5030044;28;20041;-77
2021/07/10 01:54:24;;;;;;;49.85;28.88;;;14.60;99.90;;;;;;5041631;28;20116;-76
2021/07/10 01:56:51;;;;;;;50.35;28.67;;;14.50;99.90;;;;;;5050724;28;20025;-77
2021/07/10 01:59:17;;;;;;;46.78;27.42;;;14.50;99.90;;;;;;5046243;28;20033;-77
2021/07/10 02:01:50;;;;;;;;;;;14.50;99.90;;;;;;5041808;28;20037;-76
2021/07/10 02:04:18;;;;;;;44.22;27.23;;;14.50;99.90;;;;;;5045689;28;19960;-76
2021/07/10 02:06:45;;;;;;;50.13;29.38;;;14.60;99.90;;;;;;5042959;28;20429;-76
2021/07/10 02:09:11;;;;;;;43.72;27.52;;;14.60;99.90;;;;;;5028718;28;20087;-74
2021/07/10 02:11:38;;;;;;;49.42;29.02;;;14.60;99.90;;;;;;5034704;28;20041;-74
2021/07/10 02:14:04;;;;;;;47.28;28.40;;;14.60;99.90;;;;;;5040421;28;20076;-74
2021/07/10 02:16:30;;;;;;;50.63;28.52;;;14.60;99.90;;;;;;5043846;28;20037;-74
2021/07/10 02:18:59;;;;;;;;;;;14.50;99.90;;;;;;5041938;28;20509;-74
2021/07/10 02:21:25;;;;;;;49.53;28.92;;;14.50;99.90;;;;;;5032781;28;19924;-74
2021/07/10 02:23:51;;;;;;;45.50;27.92;;;14.50;99.90;;;;;;5045783;28;20050;-74
2021/07/10 02:26:17;;;;;;;;;;;14.40;99.90;;;;;;5044110;28;20471;-75
2021/07/10 02:28:43;;;;;;;49.67;29.55;;;14.40;99.90;;;;;;5030629;28;19917;-75
2021/07/10 02:31:09;;;;;;;55.72;31.00;;;14.30;99.90;;;;;;5039976;28;20042;-74
2021/07/10 02:33:34;;;;;;;56.28;29.67;;;14.20;99.90;;;;;;5040325;28;20025;-75
2021/07/10 02:36:00;;;;;;;49.15;29.77;;;14.20;99.90;;;;;;5032032;28;20113;-75
2021/07/10 02:38:26;;;;;;;;;;;14.20;99.90;;;;;;5041297;28;20486;-75
2021/07/10 02:40:52;;;;;;;51.72;28.92;;;14.20;99.90;;;;;;5040386;28;19917;-74
2021/07/10 02:43:18;;;;;;;52.70;30.52;;;14.20;99.90;;;;;;5038209;28;20033;-75
2021/07/10 02:45:44;;;;;;;50.40;29.98;;;14.20;99.90;;;;;;5046469;28;20107;-76
2021/07/10 02:48:12;;;;;;;54.60;32.22;;;14.10;99.90;;;;;;5039275;28;20047;-76
2021/07/10 02:50:39;;;;;;;54.13;30.52;;;14.10;99.90;;;;;;5040748;28;20041;-75
2021/07/10 02:53:05;;;;;;;52.72;30.85;;;14.10;99.90;;;;;;5036573;28;20041;-76
2021/07/10 02:55:33;;;;;;;54.15;32.15;;;14.10;99.90;;;;;;5040915;28;20394;-76
2021/07/10 02:57:58;;;;;;;52.70;31.75;;;14.00;99.90;;;;;;5043395;28;20037;-76
2021/07/10 03:00:26;;;;;;;58.17;29.63;;;13.90;99.90;;;;;;5031801;28;20477;-77
2021/07/10 03:02:53;;;;;;;52.88;32.13;;;13.80;99.90;;;;;;5047398;28;20060;-77
2021/07/10 03:05:18;;;;;;;55.65;30.45;;;13.80;99.90;;;;;;5041527;28;20041;-76
2021/07/10 03:07:45;;;;;;;55.28;31.63;;;13.70;99.90;;;;;;5047962;28;20493;-76
2021/07/10 03:10:18;;;;;;;55.83;31.92;;;13.60;99.90;;;;;;5053782;28;20038;-77
2021/07/10 03:12:45;;;;;;;53.33;28.88;;;13.70;99.90;;;;;;5039093;28;20048;-75
2021/07/10 03:15:15;;;;;;;58.22;31.38;;;13.60;99.90;;;;;;5041218;28;20108;-75
2021/07/10 03:17:41;;;;;;;57.35;31.60;;;13.60;99.90;;;;;;5034798;28;20041;-76
2021/07/10 03:20:07;;;;;;;53.22;32.30;;;13.50;99.90;;;;;;5030812;28;20525;-76
2021/07/10 03:22:34;;;;;;;62.10;33.47;;;13.50;99.90;;;;;;5046115;28;20057;-76
2021/07/10 03:25:01;;;;;;;60.45;33.67;;;13.50;99.90;;;;;;5052150;28;20160;-76
2021/07/10 03:27:27;;;;;;;58.72;32.08;;;13.40;99.90;;;;;;5041760;28;20069;-75
2021/07/10 03:29:53;;;;;;;61.03;33.15;;;13.30;99.90;;;;;;5046007;28;20029;-76
2021/07/10 03:32:19;;;;;;;60.78;34.38;;;13.30;99.90;;;;;;5044191;28;20069;-76
2021/07/10 03:34:44;;;;;;;64.07;36.03;;;13.20;99.90;;;;;;5031138;28;20037;-76
2021/07/10 03:37:10;;;;;;;57.55;33.22;;;13.20;99.90;;;;;;5044507;28;20121;-75
2021/07/10 03:39:36;;;;;;;55.92;31.15;;;13.20;99.90;;;;;;5029527;28;20045;-75
2021/07/10 03:42:02;;;;;;;54.97;32.28;;;13.10;99.90;;;;;;5046617;28;20154;-76
2021/07/10 03:44:28;;;;;;;66.85;34.20;;;13.10;99.90;;;;;;5043653;28;20040;-75
2021/07/10 03:46:53;;;;;;;61.58;33.13;;;13.10;99.90;;;;;;5045069;28;20040;-76
2021/07/10 03:49:19;;;;;;;67.97;33.40;;;13.10;99.90;;;;;;5006478;28;20037;-76
2021/07/10 03:51:45;;;;;;;;;;;13.10;99.90;;;;;;5033249;28;20033;-76
2021/07/10 03:54:10;;;;;;;55.95;31.70;;;13.20;99.90;;;;;;5037082;28;19954;-76
2021/07/10 03:56:39;;;;;;;65.38;35.20;;;13.30;99.90;;;;;;5036208;28;20064;-76
2021/07/10 03:59:05;;;;;;;63.65;33.08;;;13.30;99.90;;;;;;5040378;28;20065;-75
2021/07/10 04:01:33;;;;;;;64.65;33.85;;;13.30;99.90;;;;;;5029831;28;20036;-76
2021/07/10 04:04:00;;;;;;;62.67;33.22;;;13.30;99.90;;;;;;5054331;28;20053;-75
2021/07/10 04:06:27;;;;;;;57.97;30.67;;;13.30;99.90;;;;;;5030423;28;20471;-75
2021/07/10 04:08:53;;;;;;;67.63;34.45;;;13.40;99.90;;;;;;5045423;28;20152;-75
2021/07/10 04:11:19;;;;;;;57.60;32.00;;;13.40;99.90;;;;;;5041320;28;20142;-76
2021/07/10 04:13:45;;;;;;;61.58;33.35;;;13.50;99.90;;;;;;5033468;28;20041;-75
2021/07/10 04:16:11;;;;;;;63.80;33.40;;;13.60;99.90;;;;;;5047636;28;20489;-76
2021/07/10 04:18:37;;;;;;;57.25;31.45;;;13.70;99.90;;;;;;5034981;28;20037;-76
2021/07/10 04:21:04;;;;;;;65.70;33.03;;;13.80;99.90;;;;;;5027064;28;20037;-76
2021/07/10 04:23:31;;;;;;;61.75;32.83;;;14.00;99.90;;;;;;5026622;28;20036;-75
2021/07/10 04:25:57;;;;;;;59.78;32.50;;;14.20;99.90;;;;;;5043457;28;20390;-75
2021/07/10 04:28:23;;;;;;;54.35;30.25;;;14.30;99.90;;;;;;5051619;28;20034;-75
2021/07/10 04:30:49;;;;;;;52.92;29.40;;;14.40;99.90;;;;;;5048961;28;20405;-75
2021/07/10 04:33:14;;;;;;;;;;;14.40;99.90;;;;;;5031509;28;20402;-75
2021/07/10 04:35:40;;;;;;;52.08;29.00;;;14.50;99.90;;;;;;5052929;28;19955;-75
2021/07/10 04:38:06;;;;;;;44.08;26.63;;;14.50;99.90;;;;;;5048814;28;20152;-75
2021/07/10 04:40:32;;;;;;;43.42;26.92;;;14.60;99.90;;;;;;5052212;28;20037;-75
2021/07/10 04:42:58;;;;;;;47.63;26.33;;;14.70;99.90;;;;;;5027691;28;20033;-76
2021/07/10 04:45:24;;;;;;;48.15;27.38;;;14.80;99.90;;;;;;5026642;28;20475;-76
2021/07/10 04:47:50;;;;;;;43.47;26.67;;;14.90;99.90;;;;;;5049736;28;20041;-76
2021/07/10 04:50:16;;;;;;;;;;;15.00;99.90;;;;;;5043970;28;20056;-79
2021/07/10 04:52:43;;;;;;;41.30;23.85;;;15.00;99.90;;;;;;5050988;28;20006;-76
2021/07/10 04:55:14;;;;;;;41.58;23.98;;;15.10;99.90;;;;;;5040980;28;20164;-76
2021/07/10 04:57:42;;;;;;;42.35;26.30;;;15.20;99.90;;;;;;5029955;28;20045;-76
2021/07/10 05:00:08;;;;;;;43.15;25.55;;;15.20;99.90;;;;;;5051395;28;20445;-76
2021/07/10 05:02:35;;;;;;;42.17;24.15;;;15.20;99.90;;;;;;5033301;28;20057;-76
2021/07/10 05:05:00;;;;;;;;;;;15.30;99.90;;;;;;5041239;28;20037;-75
2021/07/10 05:07:26;;;;;;;39.25;23.02;;;15.30;99.90;;;;;;5040878;28;20420;-74
2021/07/10 05:09:52;;;;;;;37.05;24.05;;;15.40;99.90;;;;;;5052376;28;20174;-75
2021/07/10 05:12:20;;;;;;;40.60;25.00;;;15.50;99.90;;;;;;5046866;28;20033;-76
2021/07/10 05:14:49;;;;;;;38.38;24.77;;;15.50;99.90;;;;;;5044457;28;20068;-75
2021/07/10 05:17:18;;;;;;;36.55;24.42;;;15.60;99.90;;;;;;5040700;28;20033;-76
2021/07/10 05:19:44;;;;;;;36.38;23.88;;;15.60;99.90;;;;;;5037083;28;20514;-76
2021/07/10 05:22:11;;;;;;;39.80;25.20;;;15.70;99.90;;;;;;5044246;28;20034;-76
2021/07/10 05:24:37;;;;;;;36.08;23.40;;;15.80;99.90;;;;;;5024498;28;20054;-76
2021/07/10 05:27:05;;;;;;;39.25;23.83;;;15.80;99.90;;;;;;5046646;28;20116;-76
2021/07/10 05:29:30;;;;;;;39.10;23.65;;;15.80;99.90;;;;;;5040571;28;20050;-76
2021/07/10 05:31:56;;;;;;;33.08;21.42;;;15.90;99.90;;;;;;5041528;28;20470;-76
2021/07/10 05:34:22;;;;;;;32.78;21.73;;;15.90;99.90;;;;;;5047949;28;20099;-76
2021/07/10 05:36:48;;;;;;;;;;;16.00;99.90;;;;;;5041552;28;20514;-77
2021/07/10 05:39:14;;;;;;;28.60;18.73;;;16.00;99.90;;;;;;5028183;28;19917;-76
2021/07/10 05:41:40;;;;;;;27.17;19.17;;;16.10;99.90;;;;;;5040733;28;20033;-76
2021/07/10 05:44:06;;;;;;;30.02;19.25;;;16.10;99.90;;;;;;5044141;28;20462;-75
2021/07/10 05:46:32;;;;;;;26.55;17.50;;;16.20;99.90;;;;;;5046437;28;20060;-76
2021/07/10 05:48:58;;;;;;;23.15;16.30;;;16.20;99.90;;;;;;5024016;28;20069;-75
2021/07/10 05:51:24;;;;;;;22.10;14.80;;;16.20;99.90;;;;;;5039980;28;20088;-75
2021/07/10 05:53:50;;;;;;;23.88;15.63;;;16.30;99.90;;;;;;5048682;28;20041;-75
2021/07/10 05:56:16;;;;;;;;;;;16.30;99.90;;;;;;5044613;28;20042;-76
2021/07/10 05:58:41;;;;;;;17.88;12.80;;;16.40;99.90;;;;;;5054805;28;19917;-75
2021/07/10 06:01:07;;;;;;;;;;;16.50;99.90;;;;;;5040584;28;20057;-75
2021/07/10 06:03:33;;;;;;;24.38;16.75;;;16.50;99.90;;;;;;5041497;28;19921;-75
2021/07/10 06:05:58;;;;;;;;;;;16.60;99.90;;;;;;5034371;28;20044;-75
2021/07/10 06:08:24;;;;;;;24.92;16.73;;;16.60;99.90;;;;;;5033155;28;19917;-75
2021/07/10 06:10:50;;;;;;;;;;;16.70;99.90;;;;;;5037633;28;20041;-75
2021/07/10 06:13:16;;;;;;;25.42;16.63;;;16.80;99.90;;;;;;5046122;28;20267;-75
2021/07/10 06:15:43;;;;;;;25.13;16.75;;;16.90;99.90;;;;;;5045050;28;20060;-75
2021/07/10 06:18:09;;;;;;;24.00;15.82;;;17.00;99.90;;;;;;5045584;28;20033;-75
2021/07/10 06:20:37;;;;;;;22.15;15.02;;;17.00;99.90;;;;;;5057809;28;20045;-76
2021/07/10 06:23:05;;;;;;;23.60;15.95;;;17.10;99.90;;;;;;5029007;28;20030;-76
2021/07/10 06:25:32;;;;;;;23.00;16.42;;;17.10;99.90;;;;;;5032747;28;20029;-76
2021/07/10 06:27:59;;;;;;;24.45;16.20;;;17.10;99.90;;;;;;5040676;28;20037;-76
2021/07/10 06:30:24;;;;;;;19.67;13.98;;;17.20;99.90;;;;;;5012355;28;20041;-76
2021/07/10 06:32:50;;;;;;;16.75;11.82;;;17.30;99.90;;;;;;5032341;28;20043;-77
2021/07/10 06:35:16;;;;;;;;;;;17.40;99.90;;;;;;5031740;28;20037;-76
2021/07/10 06:37:42;;;;;;;20.38;14.27;;;17.40;99.90;;;;;;5039315;28;19920;-77
2021/07/10 06:40:09;;;;;;;;;;;17.50;99.90;;;;;;5046459;28;20132;-76
2021/07/10 06:42:35;;;;;;;;;;;17.50;99.90;;;;;;5028033;28;20019;-76
2021/07/10 06:45:01;;;;;;;18.30;12.02;;;17.60;99.90;;;;;;5044458;28;20361;-76
2021/07/10 06:47:26;;;;;;;;;;;17.80;99.90;;;;;;5038343;28;20037;-76
2021/07/10 06:49:52;;;;;;;17.25;11.82;;;17.80;99.90;;;;;;5042163;28;20075;-76
2021/07/10 06:52:18;;;;;;;;;;;18.00;99.90;;;;;;5041592;28;20029;-76
2021/07/10 06:54:44;;;;;;;13.85;9.50;;;18.10;99.90;;;;;;5039163;28;20388;-77
2021/07/10 06:57:09;;;;;;;;;;;18.10;99.90;;;;;;5049961;28;20052;-79
2021/07/10 06:59:35;;;;;;;14.57;10.95;;;18.20;99.90;;;;;;5042886;28;19924;-77
2021/07/10 07:02:02;;;;;;;15.88;12.05;;;18.30;99.90;;;;;;5040824;28;20033;-77
2021/07/10 07:04:27;;;;;;;;;;;18.30;99.90;;;;;;5027767;28;20589;-77
2021/07/10 07:06:53;;;;;;;18.08;12.35;;;18.30;99.90;;;;;;5031287;28;19923;-78
2021/07/10 07:09:19;;;;;;;;;;;18.40;99.90;;;;;;5033140;28;20038;-77
2021/07/10 07:11:45;;;;;;;12.93;9.52;;;18.40;99.90;;;;;;5041775;28;19959;-77
2021/07/10 07:14:12;;;;;;;14.27;9.68;;;18.50;99.90;;;;;;5019386;28;20058;-76
2021/07/10 07:16:38;;;;;;;13.50;9.63;;;18.60;99.90;;;;;;5036552;28;20063;-77
2021/07/10 07:19:04;;;;;;;;;;;18.60;99.90;;;;;;5045212;28;20040;-76
2021/07/10 07:21:29;;;;;;;13.85;9.57;;;18.60;99.90;;;;;;5029504;28;20297;-76
2021/07/10 07:23:57;;;;;;;;;;;18.60;99.90;;;;;;5045810;28;20438;-76
2021/07/10 07:26:23;;;;;;;12.35;9.05;;;18.80;99.90;;;;;;5037863;28;19917;-76
2021/07/10 07:28:49;;;;;;;;;;;19.10;99.90;;;;;;5036968;28;20033;-76
2021/07/10 07:31:15;;;;;;;11.68;8.35;;;19.30;99.90;;;;;;5047078;28;19944;-77
2021/07/10 07:33:41;;;;;;;11.60;9.40;;;19.60;99.90;;;;;;5027301;28;20478;-76
2021/07/10 07:36:08;;;;;;;10.48;8.35;;;19.80;99.90;;;;;;5033643;28;20475;-77
2021/07/10 07:38:35;;;;;;;10.02;8.43;;;19.80;99.90;;;;;;5029991;28;20139;-76
2021/07/10 07:41:02;;;;;;;13.07;8.27;;;19.80;99.90;;;;;;5032439;28;20036;-77
2021/07/10 07:43:28;;;;;;;9.88;7.82;;;19.80;99.90;;;;;;5041495;28;20045;-76
2021/07/10 07:45:58;;;;;;;9.05;7.70;;;19.60;99.90;;;;;;5030987;28;20038;-77
2021/07/10 07:48:26;;;;;;;11.48;8.98;;;19.70;99.90;;;;;;5018579;28;20086;-77
2021/07/10 07:50:52;;;;;;;11.57;8.60;;;19.80;99.90;;;;;;5014523;28;20045;-77
2021/07/10 07:53:19;;;;;;;;;;;19.90;99.90;;;;;;5024476;28;20040;-77
2021/07/10 07:55:46;;;;;;;13.57;10.23;;;19.80;99.90;;;;;;5041607;28;19928;-77
2021/07/10 07:58:12;;;;;;;13.02;9.43;;;19.80;99.90;;;;;;5016672;28;20065;-77
2021/07/10 08:00:38;;;;;;;11.93;9.07;;;19.90;99.90;;;;;;5050801;28;20545;-77
2021/07/10 08:03:05;;;;;;;12.05;9.10;;;19.90;99.90;;;;;;5038577;28;20052;-76
2021/07/10 08:05:31;;;;;;;11.73;9.05;;;19.80;99.90;;;;;;5030721;28;20045;-77
2021/07/10 08:07:56;;;;;;;;;;;19.80;99.90;;;;;;5042430;28;20811;-77
2021/07/10 08:10:23;;;;;;;14.38;9.00;;;19.60;99.90;;;;;;5032330;28;19917;-77
2021/07/10 08:12:50;;;;;;;11.15;7.75;;;19.60;99.90;;;;;;5013759;28;20117;-77
2021/07/10 08:15:17;;;;;;;12.13;8.63;;;19.80;99.90;;;;;;5032082;28;20047;-77
2021/07/10 08:17:46;;;;;;;13.80;8.93;;;20.00;99.90;;;;;;5033131;28;20041;-77
2021/07/10 08:20:13;;;;;;;12.10;9.30;;;20.10;99.90;;;;;;5031592;28;20065;-76
2021/07/10 08:22:40;;;;;;;11.23;8.55;;;20.30;99.90;;;;;;5029328;28;20047;-77
2021/07/10 08:25:07;;;;;;;12.05;8.13;;;20.20;99.90;;;;;;5031355;28;20109;-77
2021/07/10 08:27:32;;;;;;;11.57;8.25;;;20.10;99.90;;;;;;5030633;28;20042;-77
2021/07/10 08:29:59;;;;;;;11.63;8.15;;;20.10;99.90;;;;;;5018184;28;20095;-77
2021/07/10 08:32:24;;;;;;;11.15;8.43;;;20.10;99.90;;;;;;5030152;28;20112;-76
2021/07/10 08:34:50;;;;;;;12.50;7.80;;;20.00;99.90;;;;;;5038965;28;20120;-76
2021/07/10 08:37:16;;;;;;;;;;;20.00;99.90;;;;;;5043444;28;20045;-76
2021/07/10 08:39:42;;;;;;;8.90;7.05;;;20.10;99.90;;;;;;5033902;28;19924;-76
2021/07/10 08:42:08;;;;;;;10.07;7.40;;;20.10;99.90;;;;;;4997646;28;20033;-77
2021/07/10 08:44:38;;;;;;;7.57;5.95;;;20.10;99.90;;;;;;5019148;28;20110;-76
2021/07/10 08:47:05;;;;;;;6.15;4.80;;;20.10;99.90;;;;;;5029104;28;20037;-77
2021/07/10 08:49:32;;;;;;;7.70;5.72;;;20.00;99.90;;;;;;5034660;28;20172;-76
2021/07/10 08:51:58;;;;;;;7.05;5.85;;;20.00;99.90;;;;;;5044090;28;20037;-75
2021/07/10 08:54:24;;;;;;;7.28;5.20;;;20.10;99.90;;;;;;5056581;28;20029;-77
2021/07/10 08:56:50;;;;;;;6.45;4.80;;;20.10;99.90;;;;;;5037636;28;20390;-77
2021/07/10 08:59:17;;;;;;;6.03;5.18;;;20.30;99.90;;;;;;5033470;28;20049;-77
2021/07/10 09:01:43;;;;;;;6.53;5.07;;;20.40;99.90;;;;;;5033568;28;20110;-77
2021/07/10 09:04:09;;;;;;;5.40;4.10;;;20.60;99.90;;;;;;5042189;28;20092;-77
2021/07/10 09:06:35;;;;;;;5.28;4.63;;;20.90;99.90;;;;;;5013004;28;20065;-77
2021/07/10 09:09:03;;;;;;;;;;;21.20;99.90;;;;;;5016046;28;20041;-77
2021/07/10 09:11:29;;;;;;;7.40;4.90;;;21.40;99.90;;;;;;5025717;28;20370;-77
2021/07/10 09:13:56;;;;;;;7.18;5.10;;;21.30;99.90;;;;;;5012798;28;20129;-77
2021/07/10 09:16:26;;;;;;;7.20;5.30;;;21.10;99.90;;;;;;5033680;28;20041;-76
2021/07/10 09:19:05;;;;;;;7.10;5.22;;;21.10;99.90;;;;;;5035510;28;20048;-77
2021/07/10 09:21:48;;;;;;;8.00;5.22;;;21.20;99.90;;;;;;5035222;28;20049;-76
2021/07/10 09:24:16;;;;;;;6.45;5.00;;;21.30;99.90;;;;;;5010505;28;20038;-76
2021/07/10 09:26:48;;;;;;;7.82;5.32;;;21.30;99.90;;;;;;5037561;28;20037;-76
2021/07/10 09:29:21;;;;;;;6.60;5.25;;;21.30;99.90;;;;;;5038105;28;20037;-76
2021/07/10 09:31:54;;;;;;;6.75;5.20;;;21.30;99.90;;;;;;5037220;28;20046;-76
2021/07/10 09:34:22;;;;;;;7.80;5.40;;;21.40;99.90;;;;;;5033156;28;20518;-77
2021/07/10 09:36:50;;;;;;;7.63;5.80;;;21.60;99.90;;;;;;5033659;28;20187;-76
2021/07/10 09:39:17;;;;;;;6.63;5.30;;;21.90;99.90;;;;;;5032174;28;20516;-77
2021/07/10 09:41:43;;;;;;;6.20;4.82;;;22.20;99.90;;;;;;5033243;28;20091;-77
2021/07/10 09:44:12;;;;;;;7.63;5.63;;;22.10;99.90;;;;;;5045746;28;20041;-77
2021/07/10 09:46:39;;;;;;;9.98;6.35;;;22.10;99.90;;;;;;5050090;28;20091;-77
2021/07/10 09:49:25;;;;;;;7.72;5.90;;;22.20;99.90;;;;;;5029418;28;20104;-78
2021/07/10 09:52:06;;;;;;;7.35;5.13;;;22.50;98.70;;;;;;5033061;28;20033;-77
2021/07/10 09:54:38;;;;;;;6.22;4.28;;;22.40;98.10;;;;;;5037125;28;20429;-77
2021/07/10 09:57:10;;;;;;;5.90;4.80;;;22.40;99.00;;;;;;5017360;28;20702;-77
2021/07/10 09:59:51;;;;;;;9.82;5.15;;;22.40;98.80;;;;;;5032953;28;20045;-77
2021/07/10 10:02:21;;;;;;;7.50;5.75;;;22.50;98.50;;;;;;5046257;28;20049;-77
2021/07/10 10:04:47;;;;;;;8.23;5.97;;;22.70;97.70;;;;;;5028266;28;20056;-77
2021/07/10 10:07:16;;;;;;;7.25;5.45;;;22.90;96.70;;;;;;5032188;28;20045;-77
2021/07/10 10:09:42;;;;;;;8.48;5.90;;;22.80;93.10;;;;;;5030755;28;20080;-78
2021/07/10 10:12:13;;;;;;;7.38;5.38;;;22.50;93.70;;;;;;5033229;28;20045;-77
2021/07/10 10:14:48;;;;;;;7.57;5.93;;;22.40;97.00;;;;;;5025603;28;20049;-76
2021/07/10 10:17:17;;;;;;;6.70;5.20;;;22.40;96.60;;;;;;5032793;28;20037;-76
2021/07/10 10:19:44;;;;;;;7.95;5.60;;;22.40;97.80;;;;;;5032255;28;20060;-78
2021/07/10 10:22:12;;;;;;;8.00;6.03;;;22.50;97.20;;;;;;5021263;28;20105;-77
2021/07/10 10:24:40;;;;;;;8.38;5.70;;;22.60;94.90;;;;;;5030824;28;20045;-76
2021/07/10 10:27:08;;;;;;;8.43;5.90;;;22.40;96.20;;;;;;5032696;28;20109;-77
2021/07/10 10:29:34;;;;;;;6.00;4.40;;;22.30;96.60;;;;;;5014525;28;20064;-77
2021/07/10 10:32:01;;;;;;;6.85;5.15;;;22.60;98.20;;;;;;5033323;28;20116;-77
2021/07/10 10:34:27;;;;;;;7.68;5.85;;;22.80;96.70;;;;;;5034020;28;20065;-77
2021/07/10 10:36:54;;;;;;;8.52;6.65;;;22.90;94.90;;;;;;5033309;28;20100;-77
2021/07/10 10:39:24;;;;;;;7.32;5.55;;;22.80;94.60;;;;;;5048085;28;20120;-77
2021/07/10 10:41:57;;;;;;;6.07;4.75;;;22.80;95.80;;;;;;5039156;28;20041;-76
2021/07/10 10:44:26;;;;;;;6.88;4.88;;;22.90;97.10;;;;;;5033873;28;20037;-77
2021/07/10 10:46:55;;;;;;;6.25;4.70;;;23.00;94.90;;;;;;5047119;28;20112;-76
2021/07/10 10:49:38;;;;;;;5.93;4.70;;;22.90;95.70;;;;;;5031972;28;20483;-77
2021/07/10 10:52:32;;;;;;;5.75;4.70;;;23.00;96.00;;;;;;5032308;28;20499;-77
2021/07/10 10:55:27;;;;;;;5.60;4.18;;;23.10;94.90;;;;;;5040975;28;20029;-76
2021/07/10 10:57:54;;;;;;;5.72;5.10;;;23.10;97.70;;;;;;5015398;28;20029;-77
2021/07/10 11:00:23;;;;;;;8.00;5.50;;;23.30;95.90;;;;;;5032258;28;20115;-77
2021/07/10 11:02:48;;;;;;;7.15;5.10;;;23.30;94.80;;;;;;5029253;28;20046;-77
2021/07/10 11:05:30;;;;;;;6.13;4.90;;;23.30;95.40;;;;;;5048846;28;20040;-77
2021/07/10 11:08:17;;;;;;;5.85;4.75;;;23.40;93.90;;;;;;5040014;28;20037;-77
2021/07/10 11:11:04;;;;;;;5.50;4.57;;;23.40;96.30;;;;;;5033979;28;20037;-76
2021/07/10 11:13:39;;;;;;;6.95;5.10;;;23.70;96.50;;;;;;5033767;28;20120;-76
2021/07/10 11:16:15;;;;;;;5.45;4.65;;;24.10;95.90;;;;;;5032870;28;20033;-78
2021/07/10 11:19:00;;;;;;;7.22;4.57;;;24.20;92.90;;;;;;5023433;28;20116;-76
2021/07/10 11:21:37;;;;;;;6.65;5.15;;;24.00;94.30;;;;;;5033419;28;20055;-76
2021/07/10 11:24:20;;;;;;;6.45;5.20;;;24.00;94.50;;;;;;5031667;28;20056;-77
2021/07/10 11:26:54;;;;;;;6.32;5.35;;;24.10;93.40;;;;;;5031131;28;20120;-77
2021/07/10 11:29:47;;;;;;;4.97;4.22;;;24.20;92.20;;;;;;5031602;28;20399;-77
2021/07/10 11:32:13;;;;;;;5.20;4.45;;;24.10;93.90;;;;;;5031435;28;20533;-77
2021/07/10 11:34:50;;;;;;;6.40;5.00;;;24.20;93.60;;;;;;5033648;28;20045;-76
2021/07/10 11:37:20;;;;;;;5.88;4.70;;;24.50;94.00;;;;;;5032346;28;20037;-77
2021/07/10 11:39:53;;;;;;;6.82;5.22;;;24.90;94.20;;;;;;5030707;28;20047;-77
2021/07/10 11:42:41;;;;;;;6.55;4.90;;;25.10;93.60;;;;;;5025552;28;20040;-76
2021/07/10 11:45:13;;;;;;;6.63;5.00;;;25.20;92.30;;;;;;5044928;28;20032;-76
2021/07/10 11:47:42;;;;;;;6.68;5.00;;;25.60;91.30;;;;;;5033206;28;20038;-77
2021/07/10 11:50:15;;;;;;;6.10;4.95;;;25.70;91.20;;;;;;5035353;28;20060;-77
2021/07/10 11:52:41;;;;;;;6.00;4.97;;;25.90;86.90;;;;;;5036956;28;20045;-77
2021/07/10 11:55:09;;;;;;;5.43;4.50;;;25.90;87.90;;;;;;5032793;28;20037;-77
2021/07/10 11:57:37;;;;;;;6.00;4.45;;;25.90;85.30;;;;;;5030521;28;20124;-77
2021/07/10 12:00:13;;;;;;;8.00;5.00;;;25.80;89.10;;;;;;5031110;28;20453;-77
2021/07/10 12:02:40;;;;;;;6.25;4.55;;;26.00;89.20;;;;;;5007844;28;20413;-77
2021/07/10 12:05:13;;;;;;;6.15;5.00;;;26.20;84.60;;;;;;5028540;28;20086;-77
2021/07/10 12:07:39;;;;;;;5.65;5.00;;;26.10;84.10;;;;;;5043721;28;20041;-77
2021/07/10 12:10:11;;;;;;;6.05;4.72;;;26.00;85.70;;;;;;5030873;28;20037;-77
2021/07/10 12:12:50;;;;;;;9.27;5.15;;;25.90;85.40;;;;;;5030514;28;20042;-77
2021/07/10 12:15:22;;;;;;;6.20;4.95;;;25.70;84.00;;;;;;5031026;28;20478;-77
2021/07/10 12:17:52;;;;;;;6.15;4.97;;;25.60;89.70;;;;;;5030612;28;20088;-77
2021/07/10 12:20:33;;;;;;;6.18;4.50;;;25.70;89.10;;;;;;5022170;28;20051;-77
2021/07/10 12:23:03;;;;;;;7.80;4.97;;;25.70;87.80;;;;;;5038371;28;20052;-77
2021/07/10 12:26:02;;;;;;;8.55;5.00;;;25.70;88.10;;;;;;5035045;28;20042;-77
2021/07/10 12:28:32;;;;;;;6.93;4.75;;;25.70;89.70;;;;;;5040563;28;20041;-77
2021/07/10 12:31:01;;;;;;;7.10;5.10;;;25.70;89.50;;;;;;5034924;28;20533;-77
2021/07/10 12:33:37;;;;;;;6.03;4.80;;;25.70;86.20;;;;;;5028082;28;20653;-77
2021/07/10 12:36:09;;;;;;;6.35;4.88;;;25.60;85.80;;;;;;5037791;28;20041;-77
2021/07/10 12:38:36;;;;;;;6.45;5.28;;;25.60;86.30;;;;;;5033013;28;20434;-77
2021/07/10 12:41:41;;;;;;;7.75;5.47;;;25.60;84.20;;;;;;5023729;28;20033;-77
2021/07/10 12:44:23;;;;;;;5.53;4.88;;;25.50;80.30;;;;;;4970492;28;20389;-77
2021/07/10 12:47:00;;;;;;;5.63;4.63;;;25.30;85.40;;;;;;5018858;28;20034;-77
2021/07/10 12:49:29;;;;;;;8.35;5.25;;;25.30;88.40;;;;;;5037944;28;20033;-77
2021/07/10 12:51:56;;;;;;;6.05;4.82;;;25.40;88.90;;;;;;5035126;28;20048;-77